sensor_id;sensor_type;location;lat;lon;timestamp;P1;durP1;ratioP1;P2;durP2;ratioP2
71496;SDS011;59317;53.218;5.730;2022-12-07T00:00:00;7.32;;;0.82;;
71496;SDS011;59317;53.218;5.730;2022-12-07T00:02:26;7.45;;;0.47;;
71496;SDS011;59317;53.218;5.730;2022-12-07T00:04:52;8.93;;;0.60;;
71496;SDS011;59317;53.218;5.730;2022-12-07T00:07:18;7.38;;;0.45;;
71496;SDS011;59317;53.218;5.730;2022-12-07T00:09:44;5.55;;;0.57;;
71496;SDS011;59317;53.218;5.730;2022-12-07T00:12:10;7.47;;;0.50;;
71496;SDS011;59317;53.218;5.730;2022-12-07T00:14:36;7.13;;;0.50;;
71496;SDS011;59317;53.218;5.730;2022-12-07T00:17:02;13.90;;;1.08;;
71496;SDS011;59317;53.218;5.730;2022-12-07T00:19:28;7.73;;;0.60;;
71496;SDS011;59317;53.218;5.730;2022-12-07T00:21:54;9.85;;;0.82;;
71496;SDS011;59317;53.218;5.730;2022-12-07T00:24:20;7.70;;;0.57;;
71496;SDS011;59317;53.218;5.730;2022-12-07T00:26:46;8.00;;;0.60;;
71496;SDS011;59317;53.218;5.730;2022-12-07T00:29:17;5.78;;;0.68;;
71496;SDS011;59317;53.218;5.730;2022-12-07T00:31:43;4.33;;;0.40;;
71496;SDS011;59317;53.218;5.730;2022-12-07T00:34:14;4.38;;;0.60;;
71496;SDS011;59317;53.218;5.730;2022-12-07T00:36:40;4.53;;;0.20;;
71496;SDS011;59317;53.218;5.730;2022-12-07T00:39:06;4.13;;;0.40;;
71496;SDS011;59317;53.218;5.730;2022-12-07T00:41:32;5.18;;;0.30;;
71496;SDS011;59317;53.218;5.730;2022-12-07T00:43:58;4.83;;;0.40;;
71496;SDS011;59317;53.218;5.730;2022-12-07T00:46:24;3.60;;;0.20;;
71496;SDS011;59317;53.218;5.730;2022-12-07T00:48:51;5.47;;;0.30;;
71496;SDS011;59317;53.218;5.730;2022-12-07T00:51:18;3.42;;;0.22;;
71496;SDS011;59317;53.218;5.730;2022-12-07T00:53:44;5.75;;;0.32;;
71496;SDS011;59317;53.218;5.730;2022-12-07T00:56:12;6.43;;;0.57;;
71496;SDS011;59317;53.218;5.730;2022-12-07T00:58:38;7.55;;;0.60;;
71496;SDS011;59317;53.218;5.730;2022-12-07T01:01:05;10.48;;;0.70;;
71496;SDS011;59317;53.218;5.730;2022-12-07T01:03:31;7.68;;;0.60;;
71496;SDS011;59317;53.218;5.730;2022-12-07T01:05:57;11.55;;;1.00;;
71496;SDS011;59317;53.218;5.730;2022-12-07T01:08:24;6.83;;;0.53;;
71496;SDS011;59317;53.218;5.730;2022-12-07T01:10:57;10.68;;;0.75;;
71496;SDS011;59317;53.218;5.730;2022-12-07T01:13:23;9.47;;;0.73;;
71496;SDS011;59317;53.218;5.730;2022-12-07T01:15:49;6.10;;;0.50;;
71496;SDS011;59317;53.218;5.730;2022-12-07T01:18:15;7.68;;;0.40;;
71496;SDS011;59317;53.218;5.730;2022-12-07T01:20:41;5.13;;;0.40;;
71496;SDS011;59317;53.218;5.730;2022-12-07T01:23:07;5.45;;;0.40;;
71496;SDS011;59317;53.218;5.730;2022-12-07T01:25:34;5.35;;;0.30;;
71496;SDS011;59317;53.218;5.730;2022-12-07T01:28:00;6.85;;;0.40;;
71496;SDS011;59317;53.218;5.730;2022-12-07T01:30:26;5.22;;;0.30;;
71496;SDS011;59317;53.218;5.730;2022-12-07T01:32:52;7.53;;;0.50;;
71496;SDS011;59317;53.218;5.730;2022-12-07T01:35:18;6.75;;;0.43;;
71496;SDS011;59317;53.218;5.730;2022-12-07T01:37:44;7.20;;;0.50;;
71496;SDS011;59317;53.218;5.730;2022-12-07T01:40:10;6.28;;;0.50;;
71496;SDS011;59317;53.218;5.730;2022-12-07T01:42:36;10.25;;;0.80;;
71496;SDS011;59317;53.218;5.730;2022-12-07T01:47:45;6.38;;;0.40;;
71496;SDS011;59317;53.218;5.730;2022-12-07T01:50:13;11.73;;;0.63;;
71496;SDS011;59317;53.218;5.730;2022-12-07T01:52:39;6.95;;;0.47;;
71496;SDS011;59317;53.218;5.730;2022-12-07T01:55:09;7.93;;;0.40;;
71496;SDS011;59317;53.218;5.730;2022-12-07T01:57:38;7.37;;;0.40;;
71496;SDS011;59317;53.218;5.730;2022-12-07T02:00:05;5.17;;;0.30;;
71496;SDS011;59317;53.218;5.730;2022-12-07T02:02:36;5.38;;;0.45;;
71496;SDS011;59317;53.218;5.730;2022-12-07T02:05:04;9.70;;;0.40;;
71496;SDS011;59317;53.218;5.730;2022-12-07T02:07:31;7.97;;;0.50;;
71496;SDS011;59317;53.218;5.730;2022-12-07T02:10:11;8.13;;;0.50;;
71496;SDS011;59317;53.218;5.730;2022-12-07T02:12:37;11.05;;;0.70;;
71496;SDS011;59317;53.218;5.730;2022-12-07T02:15:03;11.73;;;0.63;;
71496;SDS011;59317;53.218;5.730;2022-12-07T02:17:37;8.60;;;0.63;;
71496;SDS011;59317;53.218;5.730;2022-12-07T02:30:40;7.10;;;0.85;;
71496;SDS011;59317;53.218;5.730;2022-12-07T02:33:11;6.93;;;0.50;;
71496;SDS011;59317;53.218;5.730;2022-12-07T02:35:40;8.70;;;0.80;;
71496;SDS011;59317;53.218;5.730;2022-12-07T02:38:11;4.68;;;0.40;;
71496;SDS011;59317;53.218;5.730;2022-12-07T02:43:08;5.90;;;0.40;;
71496;SDS011;59317;53.218;5.730;2022-12-07T02:45:36;5.47;;;0.30;;
71496;SDS011;59317;53.218;5.730;2022-12-07T02:48:05;4.82;;;0.60;;
71496;SDS011;59317;53.218;5.730;2022-12-07T02:50:31;9.47;;;0.43;;
71496;SDS011;59317;53.218;5.730;2022-12-07T02:52:57;3.93;;;0.40;;
71496;SDS011;59317;53.218;5.730;2022-12-07T02:55:26;4.90;;;0.40;;
71496;SDS011;59317;53.218;5.730;2022-12-07T03:00:20;7.10;;;0.40;;
71496;SDS011;59317;53.218;5.730;2022-12-07T03:02:51;6.60;;;0.53;;
71496;SDS011;59317;53.218;5.730;2022-12-07T03:05:22;6.80;;;0.40;;
71496;SDS011;59317;53.218;5.730;2022-12-07T03:07:58;7.67;;;0.70;;
71496;SDS011;59317;53.218;5.730;2022-12-07T03:10:36;5.78;;;0.65;;
71496;SDS011;59317;53.218;5.730;2022-12-07T03:15:39;5.53;;;0.50;;
71496;SDS011;59317;53.218;5.730;2022-12-07T03:18:07;5.35;;;0.50;;
71496;SDS011;59317;53.218;5.730;2022-12-07T03:20:34;3.17;;;0.40;;
71496;SDS011;59317;53.218;5.730;2022-12-07T03:23:06;4.90;;;0.43;;
71496;SDS011;59317;53.218;5.730;2022-12-07T03:25:34;4.70;;;0.37;;
71496;SDS011;59317;53.218;5.730;2022-12-07T03:28:02;4.93;;;0.30;;
71496;SDS011;59317;53.218;5.730;2022-12-07T03:30:38;4.68;;;0.70;;
71496;SDS011;59317;53.218;5.730;2022-12-07T03:33:10;1.73;;;0.20;;
71496;SDS011;59317;53.218;5.730;2022-12-07T03:35:42;2.75;;;0.30;;
71496;SDS011;59317;53.218;5.730;2022-12-07T03:38:15;2.05;;;0.20;;
71496;SDS011;59317;53.218;5.730;2022-12-07T03:40:51;5.13;;;0.30;;
71496;SDS011;59317;53.218;5.730;2022-12-07T03:43:18;5.77;;;0.33;;
71496;SDS011;59317;53.218;5.730;2022-12-07T03:45:49;6.50;;;0.70;;
71496;SDS011;59317;53.218;5.730;2022-12-07T03:48:22;6.80;;;0.40;;
71496;SDS011;59317;53.218;5.730;2022-12-07T03:50:52;7.68;;;0.40;;
71496;SDS011;59317;53.218;5.730;2022-12-07T03:53:29;6.55;;;0.50;;
71496;SDS011;59317;53.218;5.730;2022-12-07T03:55:59;8.93;;;0.70;;
71496;SDS011;59317;53.218;5.730;2022-12-07T03:58:25;7.43;;;0.68;;
71496;SDS011;59317;53.218;5.730;2022-12-07T04:00:52;7.20;;;0.50;;
71496;SDS011;59317;53.218;5.730;2022-12-07T04:03:18;9.95;;;0.70;;
71496;SDS011;59317;53.218;5.730;2022-12-07T04:05:44;7.20;;;0.70;;
71496;SDS011;59317;53.218;5.730;2022-12-07T04:08:10;10.10;;;0.80;;
71496;SDS011;59317;53.218;5.730;2022-12-07T04:10:36;8.02;;;0.80;;
71496;SDS011;59317;53.218;5.730;2022-12-07T04:13:02;10.48;;;0.65;;
71496;SDS011;59317;53.218;5.730;2022-12-07T04:15:28;7.55;;;0.75;;
71496;SDS011;59317;53.218;5.730;2022-12-07T04:17:54;6.47;;;0.70;;
71496;SDS011;59317;53.218;5.730;2022-12-07T04:20:20;7.28;;;0.63;;
71496;SDS011;59317;53.218;5.730;2022-12-07T04:22:47;6.55;;;0.60;;
71496;SDS011;59317;53.218;5.730;2022-12-07T04:25:13;7.53;;;0.68;;
71496;SDS011;59317;53.218;5.730;2022-12-07T04:27:39;8.15;;;0.50;;
71496;SDS011;59317;53.218;5.730;2022-12-07T04:30:05;6.45;;;0.65;;
71496;SDS011;59317;53.218;5.730;2022-12-07T04:32:31;7.75;;;0.70;;
71496;SDS011;59317;53.218;5.730;2022-12-07T04:34:57;6.32;;;0.65;;
71496;SDS011;59317;53.218;5.730;2022-12-07T04:37:23;9.88;;;0.60;;
71496;SDS011;59317;53.218;5.730;2022-12-07T04:39:49;13.52;;;0.88;;
71496;SDS011;59317;53.218;5.730;2022-12-07T04:42:15;7.63;;;0.70;;
71496;SDS011;59317;53.218;5.730;2022-12-07T04:44:41;10.15;;;0.80;;
71496;SDS011;59317;53.218;5.730;2022-12-07T04:47:07;8.18;;;0.73;;
71496;SDS011;59317;53.218;5.730;2022-12-07T04:49:33;8.73;;;0.75;;
71496;SDS011;59317;53.218;5.730;2022-12-07T04:51:59;9.05;;;0.98;;
71496;SDS011;59317;53.218;5.730;2022-12-07T04:54:25;9.18;;;0.60;;
71496;SDS011;59317;53.218;5.730;2022-12-07T04:56:51;9.53;;;0.83;;
71496;SDS011;59317;53.218;5.730;2022-12-07T04:59:17;9.37;;;0.93;;
71496;SDS011;59317;53.218;5.730;2022-12-07T05:01:43;10.98;;;0.88;;
71496;SDS011;59317;53.218;5.730;2022-12-07T05:04:09;7.70;;;0.90;;
71496;SDS011;59317;53.218;5.730;2022-12-07T05:06:36;7.90;;;0.70;;
71496;SDS011;59317;53.218;5.730;2022-12-07T05:09:02;6.20;;;0.50;;
71496;SDS011;59317;53.218;5.730;2022-12-07T05:11:28;7.22;;;0.60;;
71496;SDS011;59317;53.218;5.730;2022-12-07T05:14:08;8.73;;;0.93;;
71496;SDS011;59317;53.218;5.730;2022-12-07T05:16:35;8.48;;;0.70;;
71496;SDS011;59317;53.218;5.730;2022-12-07T05:19:01;9.85;;;0.80;;
71496;SDS011;59317;53.218;5.730;2022-12-07T05:21:27;8.07;;;0.80;;
71496;SDS011;59317;53.218;5.730;2022-12-07T05:23:53;10.17;;;1.07;;
71496;SDS011;59317;53.218;5.730;2022-12-07T05:26:19;9.23;;;1.27;;
71496;SDS011;59317;53.218;5.730;2022-12-07T05:28:45;8.40;;;1.20;;
71496;SDS011;59317;53.218;5.730;2022-12-07T05:31:11;10.77;;;1.45;;
71496;SDS011;59317;53.218;5.730;2022-12-07T05:33:37;10.40;;;1.10;;
71496;SDS011;59317;53.218;5.730;2022-12-07T05:36:04;14.73;;;1.75;;
71496;SDS011;59317;53.218;5.730;2022-12-07T05:38:32;12.13;;;1.42;;
71496;SDS011;59317;53.218;5.730;2022-12-07T05:41:02;8.38;;;1.23;;
71496;SDS011;59317;53.218;5.730;2022-12-07T05:43:28;10.20;;;1.40;;
71496;SDS011;59317;53.218;5.730;2022-12-07T05:45:54;9.82;;;1.30;;
71496;SDS011;59317;53.218;5.730;2022-12-07T05:48:20;10.27;;;1.48;;
71496;SDS011;59317;53.218;5.730;2022-12-07T05:50:47;11.75;;;1.52;;
71496;SDS011;59317;53.218;5.730;2022-12-07T05:53:13;8.82;;;1.27;;
71496;SDS011;59317;53.218;5.730;2022-12-07T05:55:39;9.17;;;0.80;;
71496;SDS011;59317;53.218;5.730;2022-12-07T05:58:05;10.70;;;1.20;;
71496;SDS011;59317;53.218;5.730;2022-12-07T06:00:50;10.50;;;1.10;;
71496;SDS011;59317;53.218;5.730;2022-12-07T06:03:16;12.82;;;1.50;;
71496;SDS011;59317;53.218;5.730;2022-12-07T06:05:42;7.65;;;1.38;;
71496;SDS011;59317;53.218;5.730;2022-12-07T06:08:08;8.15;;;1.10;;
71496;SDS011;59317;53.218;5.730;2022-12-07T06:10:34;8.77;;;1.55;;
71496;SDS011;59317;53.218;5.730;2022-12-07T06:13:00;12.50;;;2.00;;
71496;SDS011;59317;53.218;5.730;2022-12-07T06:15:26;6.70;;;1.47;;
71496;SDS011;59317;53.218;5.730;2022-12-07T06:17:52;8.48;;;1.20;;
71496;SDS011;59317;53.218;5.730;2022-12-07T06:20:18;7.55;;;1.42;;
71496;SDS011;59317;53.218;5.730;2022-12-07T06:22:44;7.82;;;1.85;;
71496;SDS011;59317;53.218;5.730;2022-12-07T06:25:10;8.90;;;1.90;;
71496;SDS011;59317;53.218;5.730;2022-12-07T06:27:36;7.03;;;1.70;;
71496;SDS011;59317;53.218;5.730;2022-12-07T06:30:03;9.57;;;1.65;;
71496;SDS011;59317;53.218;5.730;2022-12-07T06:32:32;9.47;;;1.73;;
71496;SDS011;59317;53.218;5.730;2022-12-07T06:34:58;9.23;;;1.70;;
71496;SDS011;59317;53.218;5.730;2022-12-07T06:37:24;8.88;;;1.58;;
71496;SDS011;59317;53.218;5.730;2022-12-07T06:39:50;13.18;;;1.75;;
71496;SDS011;59317;53.218;5.730;2022-12-07T06:42:16;8.65;;;1.42;;
71496;SDS011;59317;53.218;5.730;2022-12-07T06:44:42;7.55;;;1.38;;
71496;SDS011;59317;53.218;5.730;2022-12-07T06:47:08;6.97;;;1.20;;
71496;SDS011;59317;53.218;5.730;2022-12-07T06:49:34;9.93;;;1.48;;
71496;SDS011;59317;53.218;5.730;2022-12-07T06:52:00;11.65;;;1.98;;
71496;SDS011;59317;53.218;5.730;2022-12-07T06:54:26;8.18;;;1.92;;
71496;SDS011;59317;53.218;5.730;2022-12-07T06:56:55;9.77;;;2.08;;
71496;SDS011;59317;53.218;5.730;2022-12-07T06:59:21;9.43;;;1.88;;
71496;SDS011;59317;53.218;5.730;2022-12-07T07:01:47;9.83;;;1.47;;
71496;SDS011;59317;53.218;5.730;2022-12-07T07:04:13;10.50;;;1.10;;
71496;SDS011;59317;53.218;5.730;2022-12-07T07:06:39;11.53;;;1.53;;
71496;SDS011;59317;53.218;5.730;2022-12-07T07:09:06;8.85;;;1.10;;
71496;SDS011;59317;53.218;5.730;2022-12-07T07:11:32;8.70;;;1.10;;
71496;SDS011;59317;53.218;5.730;2022-12-07T07:13:58;8.35;;;0.82;;
71496;SDS011;59317;53.218;5.730;2022-12-07T07:16:27;6.83;;;0.87;;
71496;SDS011;59317;53.218;5.730;2022-12-07T07:18:54;6.40;;;1.15;;
71496;SDS011;59317;53.218;5.730;2022-12-07T07:21:20;6.90;;;1.20;;
71496;SDS011;59317;53.218;5.730;2022-12-07T07:23:46;5.78;;;0.80;;
71496;SDS011;59317;53.218;5.730;2022-12-07T07:26:12;5.43;;;0.65;;
71496;SDS011;59317;53.218;5.730;2022-12-07T07:28:38;4.55;;;0.50;;
71496;SDS011;59317;53.218;5.730;2022-12-07T07:31:04;5.28;;;0.60;;
71496;SDS011;59317;53.218;5.730;2022-12-07T07:33:30;7.60;;;0.88;;
71496;SDS011;59317;53.218;5.730;2022-12-07T07:35:56;8.63;;;1.00;;
71496;SDS011;59317;53.218;5.730;2022-12-07T07:38:22;8.20;;;0.85;;
71496;SDS011;59317;53.218;5.730;2022-12-07T07:40:48;9.38;;;1.10;;
71496;SDS011;59317;53.218;5.730;2022-12-07T07:43:14;9.07;;;1.00;;
71496;SDS011;59317;53.218;5.730;2022-12-07T07:45:40;11.37;;;1.07;;
71496;SDS011;59317;53.218;5.730;2022-12-07T07:48:06;9.03;;;0.90;;
71496;SDS011;59317;53.218;5.730;2022-12-07T07:50:32;10.43;;;1.27;;
71496;SDS011;59317;53.218;5.730;2022-12-07T07:52:58;8.88;;;0.90;;
71496;SDS011;59317;53.218;5.730;2022-12-07T07:55:24;13.52;;;0.90;;
71496;SDS011;59317;53.218;5.730;2022-12-07T07:57:50;6.72;;;0.98;;
71496;SDS011;59317;53.218;5.730;2022-12-07T08:00:16;10.32;;;1.10;;
71496;SDS011;59317;53.218;5.730;2022-12-07T08:02:43;9.82;;;1.00;;
71496;SDS011;59317;53.218;5.730;2022-12-07T08:05:12;10.27;;;1.17;;
71496;SDS011;59317;53.218;5.730;2022-12-07T08:07:39;10.85;;;0.80;;
71496;SDS011;59317;53.218;5.730;2022-12-07T08:10:05;10.15;;;0.85;;
71496;SDS011;59317;53.218;5.730;2022-12-07T08:12:35;7.53;;;0.80;;
71496;SDS011;59317;53.218;5.730;2022-12-07T08:15:01;5.70;;;0.80;;
71496;SDS011;59317;53.218;5.730;2022-12-07T08:17:27;5.38;;;1.02;;
71496;SDS011;59317;53.218;5.730;2022-12-07T08:19:53;4.18;;;0.60;;
71496;SDS011;59317;53.218;5.730;2022-12-07T08:22:19;6.20;;;0.80;;
71496;SDS011;59317;53.218;5.730;2022-12-07T08:24:45;6.20;;;0.60;;
71496;SDS011;59317;53.218;5.730;2022-12-07T08:27:11;4.05;;;0.50;;
71496;SDS011;59317;53.218;5.730;2022-12-07T08:29:37;4.20;;;0.60;;
71496;SDS011;59317;53.218;5.730;2022-12-07T08:32:03;9.25;;;0.90;;
71496;SDS011;59317;53.218;5.730;2022-12-07T08:34:29;6.60;;;0.80;;
71496;SDS011;59317;53.218;5.730;2022-12-07T08:36:55;8.30;;;0.68;;
71496;SDS011;59317;53.218;5.730;2022-12-07T08:39:21;6.78;;;0.47;;
71496;SDS011;59317;53.218;5.730;2022-12-07T08:41:47;5.83;;;0.60;;
71496;SDS011;59317;53.218;5.730;2022-12-07T08:44:13;4.13;;;0.47;;
71496;SDS011;59317;53.218;5.730;2022-12-07T08:46:41;5.90;;;0.60;;
71496;SDS011;59317;53.218;5.730;2022-12-07T08:49:18;7.70;;;0.60;;
71496;SDS011;59317;53.218;5.730;2022-12-07T08:51:45;9.73;;;0.77;;
71496;SDS011;59317;53.218;5.730;2022-12-07T08:54:13;7.43;;;0.52;;
71496;SDS011;59317;53.218;5.730;2022-12-07T08:56:40;8.02;;;0.50;;
71496;SDS011;59317;53.218;5.730;2022-12-07T08:59:06;7.53;;;0.55;;
71496;SDS011;59317;53.218;5.730;2022-12-07T09:01:32;8.48;;;0.70;;
71496;SDS011;59317;53.218;5.730;2022-12-07T09:03:58;6.75;;;0.65;;
71496;SDS011;59317;53.218;5.730;2022-12-07T09:06:25;8.25;;;0.75;;
71496;SDS011;59317;53.218;5.730;2022-12-07T09:08:51;6.32;;;0.63;;
71496;SDS011;59317;53.218;5.730;2022-12-07T09:11:19;9.02;;;0.70;;
71496;SDS011;59317;53.218;5.730;2022-12-07T09:13:45;7.47;;;0.52;;
71496;SDS011;59317;53.218;5.730;2022-12-07T09:16:11;8.63;;;0.57;;
71496;SDS011;59317;53.218;5.730;2022-12-07T09:18:37;7.47;;;0.63;;
71496;SDS011;59317;53.218;5.730;2022-12-07T09:21:04;8.43;;;0.77;;
71496;SDS011;59317;53.218;5.730;2022-12-07T09:23:30;9.52;;;0.70;;
71496;SDS011;59317;53.218;5.730;2022-12-07T09:26:03;8.70;;;0.80;;
71496;SDS011;59317;53.218;5.730;2022-12-07T09:28:30;10.88;;;1.13;;
71496;SDS011;59317;53.218;5.730;2022-12-07T09:30:56;12.60;;;0.80;;
71496;SDS011;59317;53.218;5.730;2022-12-07T09:33:22;8.82;;;0.80;;
71496;SDS011;59317;53.218;5.730;2022-12-07T09:35:49;9.02;;;1.00;;
71496;SDS011;59317;53.218;5.730;2022-12-07T09:38:15;8.63;;;0.70;;
71496;SDS011;59317;53.218;5.730;2022-12-07T09:40:41;9.32;;;0.80;;
71496;SDS011;59317;53.218;5.730;2022-12-07T09:43:12;6.35;;;0.60;;
71496;SDS011;59317;53.218;5.730;2022-12-07T09:45:39;3.65;;;0.25;;
71496;SDS011;59317;53.218;5.730;2022-12-07T09:48:08;5.50;;;0.43;;
71496;SDS011;59317;53.218;5.730;2022-12-07T09:50:39;5.90;;;0.40;;
71496;SDS011;59317;53.218;5.730;2022-12-07T09:53:09;6.40;;;0.55;;
71496;SDS011;59317;53.218;5.730;2022-12-07T09:55:38;5.80;;;0.50;;
71496;SDS011;59317;53.218;5.730;2022-12-07T09:58:08;5.40;;;0.40;;
71496;SDS011;59317;53.218;5.730;2022-12-07T10:00:35;3.95;;;0.20;;
71496;SDS011;59317;53.218;5.730;2022-12-07T10:03:02;5.30;;;0.47;;
71496;SDS011;59317;53.218;5.730;2022-12-07T10:05:29;9.20;;;0.40;;
71496;SDS011;59317;53.218;5.730;2022-12-07T10:07:56;7.47;;;0.50;;
71496;SDS011;59317;53.218;5.730;2022-12-07T10:10:26;5.38;;;0.40;;
71496;SDS011;59317;53.218;5.730;2022-12-07T10:12:57;6.28;;;0.47;;
71496;SDS011;59317;53.218;5.730;2022-12-07T10:15:23;5.70;;;0.47;;
71496;SDS011;59317;53.218;5.730;2022-12-07T10:17:50;5.00;;;0.43;;
71496;SDS011;59317;53.218;5.730;2022-12-07T10:20:23;3.25;;;0.15;;
71496;SDS011;59317;53.218;5.730;2022-12-07T10:22:54;4.25;;;0.30;;
71496;SDS011;59317;53.218;5.730;2022-12-07T10:25:21;3.30;;;0.20;;
71496;SDS011;59317;53.218;5.730;2022-12-07T10:27:57;4.72;;;0.35;;
71496;SDS011;59317;53.218;5.730;2022-12-07T10:30:23;7.45;;;0.30;;
71496;SDS011;59317;53.218;5.730;2022-12-07T10:32:49;4.32;;;0.32;;
71496;SDS011;59317;53.218;5.730;2022-12-07T10:37:47;5.50;;;0.30;;
71496;SDS011;59317;53.218;5.730;2022-12-07T10:40:35;4.75;;;0.38;;
71496;SDS011;59317;53.218;5.730;2022-12-07T10:43:07;4.53;;;0.30;;
71496;SDS011;59317;53.218;5.730;2022-12-07T10:48:21;8.38;;;0.63;;
71496;SDS011;59317;53.218;5.730;2022-12-07T10:51:00;5.45;;;0.40;;
71496;SDS011;59317;53.218;5.730;2022-12-07T11:07:06;7.18;;;0.32;;
71496;SDS011;59317;53.218;5.730;2022-12-07T11:17:35;8.30;;;0.60;;
71496;SDS011;59317;53.218;5.730;2022-12-07T11:20:05;8.35;;;0.60;;
71496;SDS011;59317;53.218;5.730;2022-12-07T11:25:22;5.88;;;0.55;;
71496;SDS011;59317;53.218;5.730;2022-12-07T11:30:23;6.43;;;0.67;;
71496;SDS011;59317;53.218;5.730;2022-12-07T11:35:36;8.77;;;0.80;;
71496;SDS011;59317;53.218;5.730;2022-12-07T11:40:40;4.67;;;0.30;;
71496;SDS011;59317;53.218;5.730;2022-12-07T11:43:23;6.05;;;0.40;;
71496;SDS011;59317;53.218;5.730;2022-12-07T11:45:57;5.03;;;0.40;;
71496;SDS011;59317;53.218;5.730;2022-12-07T11:48:29;5.10;;;0.32;;
71496;SDS011;59317;53.218;5.730;2022-12-07T11:50:57;6.95;;;0.40;;
71496;SDS011;59317;53.218;5.730;2022-12-07T11:53:25;5.97;;;0.43;;
71496;SDS011;59317;53.218;5.730;2022-12-07T11:56:11;5.55;;;0.32;;
71496;SDS011;59317;53.218;5.730;2022-12-07T11:58:46;2.53;;;0.20;;
71496;SDS011;59317;53.218;5.730;2022-12-07T12:03:47;4.55;;;0.20;;
71496;SDS011;59317;53.218;5.730;2022-12-07T12:06:14;4.28;;;0.20;;
71496;SDS011;59317;53.218;5.730;2022-12-07T12:21:47;7.68;;;1.10;;
71496;SDS011;59317;53.218;5.730;2022-12-07T12:24:19;6.68;;;0.80;;
71496;SDS011;59317;53.218;5.730;2022-12-07T12:26:49;7.20;;;0.90;;
71496;SDS011;59317;53.218;5.730;2022-12-07T12:29:21;8.97;;;0.83;;
71496;SDS011;59317;53.218;5.730;2022-12-07T12:32:04;6.65;;;0.70;;
71496;SDS011;59317;53.218;5.730;2022-12-07T12:34:38;8.82;;;1.20;;
71496;SDS011;59317;53.218;5.730;2022-12-07T12:37:14;6.45;;;0.50;;
71496;SDS011;59317;53.218;5.730;2022-12-07T12:42:49;6.47;;;0.50;;
71496;SDS011;59317;53.218;5.730;2022-12-07T12:47:52;5.20;;;0.30;;
71496;SDS011;59317;53.218;5.730;2022-12-07T12:50:23;5.00;;;0.20;;
71496;SDS011;59317;53.218;5.730;2022-12-07T12:55:20;4.68;;;0.32;;
71496;SDS011;59317;53.218;5.730;2022-12-07T12:57:47;3.35;;;0.20;;
71496;SDS011;59317;53.218;5.730;2022-12-07T13:00:32;4.05;;;0.20;;
71496;SDS011;59317;53.218;5.730;2022-12-07T13:02:59;3.65;;;0.17;;
71496;SDS011;59317;53.218;5.730;2022-12-07T13:05:26;2.60;;;0.20;;
71496;SDS011;59317;53.218;5.730;2022-12-07T13:07:54;3.90;;;0.40;;
71496;SDS011;59317;53.218;5.730;2022-12-07T13:10:31;4.30;;;0.40;;
71496;SDS011;59317;53.218;5.730;2022-12-07T13:15:46;2.55;;;0.15;;
71496;SDS011;59317;53.218;5.730;2022-12-07T13:18:55;4.22;;;0.20;;
71496;SDS011;59317;53.218;5.730;2022-12-07T13:26:11;4.85;;;0.30;;
71496;SDS011;59317;53.218;5.730;2022-12-07T13:29:21;3.70;;;0.22;;
71496;SDS011;59317;53.218;5.730;2022-12-07T13:31:32;4.75;;;0.20;;
71496;SDS011;59317;53.218;5.730;2022-12-07T13:33:58;4.78;;;0.50;;
71496;SDS011;59317;53.218;5.730;2022-12-07T13:36:25;2.88;;;0.35;;
71496;SDS011;59317;53.218;5.730;2022-12-07T13:38:58;1.52;;;0.10;;
71496;SDS011;59317;53.218;5.730;2022-12-07T13:41:29;3.38;;;0.10;;
71496;SDS011;59317;53.218;5.730;2022-12-07T13:44:02;4.10;;;0.13;;
71496;SDS011;59317;53.218;5.730;2022-12-07T13:46:35;2.22;;;0.10;;
71496;SDS011;59317;53.218;5.730;2022-12-07T13:49:02;2.83;;;0.10;;
71496;SDS011;59317;53.218;5.730;2022-12-07T13:51:28;2.20;;;0.20;;
71496;SDS011;59317;53.218;5.730;2022-12-07T13:54:00;2.87;;;0.20;;
71496;SDS011;59317;53.218;5.730;2022-12-07T13:56:33;3.67;;;0.40;;
71496;SDS011;59317;53.218;5.730;2022-12-07T13:58:59;2.67;;;0.20;;
71496;SDS011;59317;53.218;5.730;2022-12-07T14:01:26;2.57;;;0.20;;
71496;SDS011;59317;53.218;5.730;2022-12-07T14:03:52;5.65;;;0.25;;
71496;SDS011;59317;53.218;5.730;2022-12-07T14:08:44;2.67;;;0.10;;
71496;SDS011;59317;53.218;5.730;2022-12-07T14:11:17;2.30;;;0.10;;
71496;SDS011;59317;53.218;5.730;2022-12-07T14:13:49;3.15;;;0.20;;
71496;SDS011;59317;53.218;5.730;2022-12-07T14:18:49;4.03;;;0.20;;
71496;SDS011;59317;53.218;5.730;2022-12-07T14:21:16;3.10;;;0.20;;
71496;SDS011;59317;53.218;5.730;2022-12-07T14:23:43;3.45;;;0.20;;
71496;SDS011;59317;53.218;5.730;2022-12-07T14:26:11;5.05;;;0.40;;
71496;SDS011;59317;53.218;5.730;2022-12-07T14:28:38;3.58;;;0.20;;
71496;SDS011;59317;53.218;5.730;2022-12-07T14:31:09;5.45;;;0.30;;
71496;SDS011;59317;53.218;5.730;2022-12-07T14:33:36;5.25;;;0.45;;
71496;SDS011;59317;53.218;5.730;2022-12-07T14:36:02;5.80;;;0.50;;
71496;SDS011;59317;53.218;5.730;2022-12-07T14:38:28;5.20;;;0.30;;
71496;SDS011;59317;53.218;5.730;2022-12-07T14:40:55;6.77;;;0.33;;
71496;SDS011;59317;53.218;5.730;2022-12-07T14:43:41;4.93;;;0.40;;
71496;SDS011;59317;53.218;5.730;2022-12-07T14:46:07;3.85;;;0.30;;
71496;SDS011;59317;53.218;5.730;2022-12-07T14:48:34;6.40;;;0.40;;
71496;SDS011;59317;53.218;5.730;2022-12-07T14:51:00;5.22;;;0.40;;
71496;SDS011;59317;53.218;5.730;2022-12-07T14:53:30;5.50;;;0.40;;
71496;SDS011;59317;53.218;5.730;2022-12-07T14:55:57;5.43;;;0.30;;
71496;SDS011;59317;53.218;5.730;2022-12-07T14:58:23;6.55;;;0.50;;
71496;SDS011;59317;53.218;5.730;2022-12-07T15:00:49;5.88;;;0.50;;
71496;SDS011;59317;53.218;5.730;2022-12-07T15:03:15;7.05;;;0.60;;
71496;SDS011;59317;53.218;5.730;2022-12-07T15:05:41;5.68;;;0.60;;
71496;SDS011;59317;53.218;5.730;2022-12-07T15:08:16;3.45;;;0.40;;
71496;SDS011;59317;53.218;5.730;2022-12-07T15:10:43;4.32;;;0.60;;
71496;SDS011;59317;53.218;5.730;2022-12-07T15:13:09;3.30;;;0.30;;
71496;SDS011;59317;53.218;5.730;2022-12-07T15:15:54;4.20;;;0.43;;
71496;SDS011;59317;53.218;5.730;2022-12-07T15:18:20;2.88;;;0.50;;
71496;SDS011;59317;53.218;5.730;2022-12-07T15:20:47;4.65;;;0.45;;
71496;SDS011;59317;53.218;5.730;2022-12-07T15:23:13;4.53;;;0.30;;
71496;SDS011;59317;53.218;5.730;2022-12-07T15:25:40;3.07;;;0.30;;
71496;SDS011;59317;53.218;5.730;2022-12-07T15:28:06;5.47;;;0.35;;
71496;SDS011;59317;53.218;5.730;2022-12-07T15:30:32;3.25;;;0.38;;
71496;SDS011;59317;53.218;5.730;2022-12-07T15:32:58;3.97;;;0.20;;
71496;SDS011;59317;53.218;5.730;2022-12-07T15:35:25;2.97;;;0.20;;
71496;SDS011;59317;53.218;5.730;2022-12-07T15:37:51;4.25;;;0.40;;
71496;SDS011;59317;53.218;5.730;2022-12-07T15:40:17;4.63;;;0.30;;
71496;SDS011;59317;53.218;5.730;2022-12-07T15:42:43;6.07;;;0.30;;
71496;SDS011;59317;53.218;5.730;2022-12-07T15:45:09;4.47;;;0.28;;
71496;SDS011;59317;53.218;5.730;2022-12-07T15:47:37;4.50;;;0.30;;
71496;SDS011;59317;53.218;5.730;2022-12-07T15:50:04;4.10;;;0.30;;
71496;SDS011;59317;53.218;5.730;2022-12-07T15:52:30;5.80;;;0.20;;
71496;SDS011;59317;53.218;5.730;2022-12-07T15:54:56;4.28;;;0.38;;
71496;SDS011;59317;53.218;5.730;2022-12-07T15:57:22;5.45;;;0.30;;
71496;SDS011;59317;53.218;5.730;2022-12-07T15:59:49;5.87;;;0.47;;
71496;SDS011;59317;53.218;5.730;2022-12-07T16:02:15;4.43;;;0.68;;
71496;SDS011;59317;53.218;5.730;2022-12-07T16:04:41;5.80;;;0.65;;
71496;SDS011;59317;53.218;5.730;2022-12-07T16:07:07;4.85;;;0.75;;
71496;SDS011;59317;53.218;5.730;2022-12-07T16:09:33;4.72;;;0.50;;
71496;SDS011;59317;53.218;5.730;2022-12-07T16:11:59;4.47;;;0.60;;
71496;SDS011;59317;53.218;5.730;2022-12-07T16:14:25;4.43;;;0.40;;
71496;SDS011;59317;53.218;5.730;2022-12-07T16:16:52;4.45;;;0.70;;
71496;SDS011;59317;53.218;5.730;2022-12-07T16:19:18;7.78;;;1.13;;
71496;SDS011;59317;53.218;5.730;2022-12-07T16:21:44;6.93;;;1.00;;
71496;SDS011;59317;53.218;5.730;2022-12-07T16:24:10;5.35;;;1.00;;